createdAt,value
2022-12-29T00:00:17.000Z,76.69
2022-12-29T00:03:06.570Z,76.58
2022-12-29T00:05:35.745Z,76.90
2022-12-29T00:08:05.210Z,76.74
2022-12-29T00:10:34.786Z,76.49
2022-12-29T00:13:21.992Z,76.58
2022-12-29T00:15:50.946Z,76.60
2022-12-29T00:18:19.837Z,76.69
2022-12-29T00:21:06.880Z,76.92
2022-12-29T00:23:56.404Z,76.63
2022-12-29T00:26:43.236Z,76.77
2022-12-29T00:29:38.873Z,76.80
2022-12-29T00:32:29.516Z,76.80
2022-12-29T00:35:10.591Z,76.45
2022-12-29T00:38:00.612Z,76.70
2022-12-29T00:40:47.728Z,76.89
2022-12-29T00:43:35.125Z,76.42
2022-12-29T00:46:04.772Z,76.50
2022-12-29T00:48:52.185Z,76.78
2022-12-29T00:51:21.227Z,76.50
2022-12-29T00:53:50.229Z,76.35
2022-12-29T00:56:19.058Z,76.15
2022-12-29T00:58:47.971Z,76.18
2022-12-29T01:01:17.034Z,76.25
2022-12-29T01:03:47.177Z,76.37
2022-12-29T01:06:16.670Z,76.30
2022-12-29T01:08:47.202Z,76.25
2022-12-29T01:11:16.252Z,76.21
2022-12-29T01:13:46.626Z,76.24
2022-12-29T01:16:15.921Z,75.93
2022-12-29T01:18:44.849Z,76.20
2022-12-29T01:21:13.878Z,76.11
2022-12-29T01:23:42.922Z,75.73
2022-12-29T01:26:13.054Z,75.71
2022-12-29T01:28:42.493Z,75.74
2022-12-29T01:31:13.949Z,75.84
2022-12-29T01:33:44.126Z,75.57
2022-12-29T01:36:15.666Z,75.91
2022-12-29T01:38:46.423Z,75.91
2022-12-29T01:41:16.985Z,75.83
2022-12-29T01:43:49.124Z,75.91
2022-12-29T01:46:24.688Z,75.97
2022-12-29T01:48:58.343Z,76.09
2022-12-29T01:51:30.713Z,75.96
2022-12-29T01:54:02.777Z,76.14
2022-12-29T01:56:32.394Z,76.17
2022-12-29T01:59:05.854Z,76.51
2022-12-29T02:01:35.426Z,76.79
2022-12-29T02:04:05.305Z,76.96
2022-12-29T02:06:39.183Z,77.04
2022-12-29T02:09:08.373Z,77.24
2022-12-29T02:11:39.522Z,77.35
2022-12-29T02:14:11.881Z,77.79
2022-12-29T02:16:57.622Z,77.71
2022-12-29T02:20:04.605Z,77.90
2022-12-29T02:22:42.432Z,78.11
2022-12-29T02:25:38.561Z,78.07
2022-12-29T02:28:35.094Z,78.23
2022-12-29T02:31:16.176Z,78.40
2022-12-29T02:33:57.556Z,78.43
2022-12-29T02:36:36.215Z,78.66
2022-12-29T02:39:12.046Z,78.85
2022-12-29T02:41:50.828Z,79.17
2022-12-29T02:44:28.705Z,79.31
2022-12-29T02:47:06.469Z,79.76
2022-12-29T02:49:44.341Z,79.97
2022-12-29T02:52:17.927Z,80.23
2022-12-29T02:54:50.035Z,80.63
2022-12-29T02:57:31.893Z,81.09
2022-12-29T03:00:05.447Z,81.28
2022-12-29T03:03:15.920Z,81.76
2022-12-29T03:06:08.002Z,82.28
2022-12-29T03:08:45.531Z,82.60
2022-12-29T03:11:46.748Z,83.06
2022-12-29T03:14:39.664Z,83.18
2022-12-29T03:17:16.864Z,83.34
2022-12-29T03:19:52.216Z,83.69
2022-12-29T03:22:31.636Z,83.57
2022-12-29T03:25:13.456Z,84.00
2022-12-29T03:27:45.245Z,83.84
2022-12-29T03:30:15.494Z,84.21
2022-12-29T03:32:50.109Z,84.61
2022-12-29T03:35:22.843Z,84.75
2022-12-29T03:37:59.339Z,84.60
2022-12-29T03:40:31.800Z,84.90
2022-12-29T03:43:01.145Z,85.29
2022-12-29T03:45:30.640Z,85.60
2022-12-29T03:48:00.157Z,85.93
2022-12-29T03:50:30.216Z,85.69
2022-12-29T03:52:59.092Z,85.91
2022-12-29T03:55:29.236Z,85.91
2022-12-29T03:57:59.672Z,85.70
2022-12-29T04:00:48.642Z,85.72
2022-12-29T04:03:18.283Z,85.73
2022-12-29T04:05:47.389Z,85.71
2022-12-29T04:08:16.450Z,85.66
2022-12-29T04:10:46.295Z,85.64
2022-12-29T04:13:16.993Z,85.51
2022-12-29T04:15:47.795Z,85.86
2022-12-29T04:18:16.915Z,85.89
2022-12-29T04:21:04.035Z,86.07
2022-12-29T04:23:36.900Z,86.22
2022-12-29T04:26:09.793Z,86.13
2022-12-29T04:28:47.498Z,86.10
2022-12-29T04:31:34.714Z,85.91
2022-12-29T04:34:04.189Z,85.47
2022-12-29T04:36:33.511Z,85.22
2022-12-29T04:39:02.581Z,85.07
2022-12-29T04:41:31.946Z,84.80
2022-12-29T04:44:01.302Z,84.68
2022-12-29T04:46:36.269Z,84.55
2022-12-29T04:49:10.981Z,84.35
2022-12-29T04:52:02.875Z,84.28
2022-12-29T04:54:31.828Z,84.07
2022-12-29T04:57:15.189Z,83.98
2022-12-29T04:59:45.313Z,83.94
2022-12-29T05:02:14.553Z,83.96
2022-12-29T05:04:46.883Z,83.96
2022-12-29T05:07:16.388Z,83.85
2022-12-29T05:09:46.806Z,83.78
2022-12-29T05:12:15.654Z,83.43
2022-12-29T05:14:57.083Z,83.31
2022-12-29T05:17:27.193Z,83.16
2022-12-29T05:19:56.448Z,83.03
2022-12-29T05:22:25.971Z,83.00
2022-12-29T05:24:56.875Z,83.02
2022-12-29T05:27:25.922Z,83.05
2022-12-29T05:30:24.442Z,82.92
2022-12-29T05:32:53.511Z,82.58
2022-12-29T05:35:22.448Z,82.45
2022-12-29T05:37:51.402Z,82.19
2022-12-29T05:40:20.465Z,82.36
2022-12-29T05:42:49.975Z,82.28
2022-12-29T05:45:36.603Z,81.99
2022-12-29T05:48:14.956Z,81.95
2022-12-29T05:51:07.489Z,81.69
2022-12-29T05:53:47.988Z,81.93
2022-12-29T05:56:18.240Z,81.76
2022-12-29T05:58:55.150Z,81.49
2022-12-29T06:01:26.082Z,81.50
2022-12-29T06:03:56.744Z,81.30
2022-12-29T06:06:25.641Z,81.32
2022-12-29T06:08:55.038Z,81.20
2022-12-29T06:11:23.974Z,81.01
2022-12-29T06:14:01.784Z,80.76
2022-12-29T06:16:31.170Z,80.27
2022-12-29T06:19:03.270Z,80.61
2022-12-29T06:21:32.981Z,80.70
2022-12-29T06:24:03.723Z,80.63
2022-12-29T06:26:33.170Z,80.52
2022-12-29T06:29:03.349Z,80.25
2022-12-29T06:31:32.348Z,80.41
2022-12-29T06:34:07.916Z,80.66
2022-12-29T06:36:37.467Z,80.51
2022-12-29T06:39:07.327Z,80.86
2022-12-29T06:41:36.916Z,80.79
2022-12-29T06:44:35.215Z,80.53
2022-12-29T06:47:07.919Z,80.37
2022-12-29T06:49:36.898Z,79.57
2022-12-29T06:52:12.554Z,79.48
2022-12-29T06:54:42.075Z,79.37
2022-12-29T06:57:11.169Z,79.13
2022-12-29T06:59:40.013Z,79.33
2022-12-29T07:02:11.265Z,79.17
2022-12-29T07:04:40.415Z,78.95
2022-12-29T07:07:09.529Z,78.63
2022-12-29T07:09:38.419Z,78.70
2022-12-29T07:12:08.068Z,78.52
2022-12-29T07:14:42.661Z,78.17
2022-12-29T07:17:12.433Z,77.87
2022-12-29T07:19:41.679Z,77.69
2022-12-29T07:22:11.279Z,78.07
2022-12-29T07:24:40.443Z,77.87
2022-12-29T07:27:09.340Z,77.72
2022-12-29T07:29:39.346Z,77.18
2022-12-29T07:32:08.639Z,77.74
2022-12-29T07:34:37.602Z,77.36
2022-12-29T07:37:06.871Z,76.68
2022-12-29T07:39:36.041Z,77.00
2022-12-29T07:42:05.465Z,76.57
2022-12-29T07:44:41.658Z,76.29
2022-12-29T07:47:18.715Z,76.54
2022-12-29T07:49:47.735Z,76.48
2022-12-29T07:52:16.554Z,76.29
2022-12-29T07:54:45.673Z,76.23
2022-12-29T07:57:14.654Z,76.51
2022-12-29T07:59:43.768Z,76.69
2022-12-29T08:02:13.025Z,76.63
2022-12-29T08:04:41.980Z,76.15
2022-12-29T08:07:11.207Z,76.19
2022-12-29T08:09:40.070Z,75.56
2022-12-29T08:12:10.917Z,75.74
2022-12-29T08:14:39.837Z,75.19
2022-12-29T08:17:09.057Z,75.57
2022-12-29T08:19:38.578Z,75.03
2022-12-29T08:22:07.782Z,74.68
2022-12-29T08:24:36.701Z,74.04
2022-12-29T08:27:14.603Z,74.22
2022-12-29T08:29:46.873Z,73.87
2022-12-29T08:32:15.986Z,73.77
2022-12-29T08:34:45.153Z,73.31
2022-12-29T08:37:14.145Z,73.67
2022-12-29T08:39:42.974Z,73.46
2022-12-29T08:42:11.817Z,73.22
2022-12-29T08:44:41.366Z,72.65
2022-12-29T08:47:11.652Z,72.73
2022-12-29T08:49:40.656Z,72.61
2022-12-29T08:52:10.105Z,73.26
2022-12-29T08:54:39.047Z,72.15
2022-12-29T08:57:08.454Z,71.94
2022-12-29T08:59:43.529Z,72.70
2022-12-29T09:02:18.727Z,72.41
2022-12-29T09:04:51.049Z,72.42
2022-12-29T09:07:20.225Z,72.29
2022-12-29T09:09:49.144Z,72.31
2022-12-29T09:12:18.751Z,72.57
2022-12-29T09:14:48.490Z,72.19
2022-12-29T09:17:35.614Z,71.69
2022-12-29T09:20:06.455Z,71.37
2022-12-29T09:22:35.513Z,71.62
2022-12-29T09:25:05.171Z,71.30
2022-12-29T09:27:34.345Z,71.47
2022-12-29T09:30:03.697Z,70.94
2022-12-29T09:32:34.236Z,71.05
2022-12-29T09:35:04.465Z,70.70
2022-12-29T09:37:34.101Z,70.76
2022-12-29T09:40:03.448Z,70.71
2022-12-29T09:42:38.338Z,70.53
2022-12-29T09:45:14.255Z,70.41
2022-12-29T09:47:46.038Z,70.20
2022-12-29T09:50:24.675Z,70.40
2022-12-29T09:53:01.779Z,70.71
2022-12-29T09:55:37.944Z,70.81
2022-12-29T09:58:13.089Z,70.61
2022-12-29T10:00:54.912Z,70.83
2022-12-29T10:03:28.109Z,70.37
2022-12-29T10:06:07.335Z,70.08
2022-12-29T10:08:40.777Z,70.26
2022-12-29T10:11:19.913Z,70.50
2022-12-29T10:14:07.545Z,70.22
2022-12-29T10:16:46.755Z,70.60
2022-12-29T10:19:37.015Z,70.69
2022-12-29T10:22:19.755Z,70.20
2022-12-29T10:24:53.060Z,69.95
2022-12-29T10:27:22.211Z,69.92
2022-12-29T10:29:55.031Z,70.10
2022-12-29T10:32:33.498Z,70.36
2022-12-29T10:35:11.917Z,70.02
2022-12-29T10:37:49.891Z,70.16
2022-12-29T10:40:26.417Z,69.76
2022-12-29T10:42:57.635Z,69.52
2022-12-29T10:45:31.914Z,69.43
2022-12-29T10:48:04.146Z,69.11
2022-12-29T10:50:33.847Z,69.93
2022-12-29T10:53:06.452Z,69.39
2022-12-29T10:55:39.175Z,69.52
2022-12-29T10:58:13.268Z,69.59
2022-12-29T11:00:54.406Z,69.90
2022-12-29T11:03:51.213Z,69.35
2022-12-29T11:06:25.561Z,68.82
2022-12-29T11:08:57.971Z,68.73
2022-12-29T11:11:29.074Z,69.14
2022-12-29T11:14:02.857Z,68.26
2022-12-29T11:16:34.632Z,68.87
2022-12-29T11:19:04.077Z,68.64
2022-12-29T11:21:40.779Z,68.63
2022-12-29T11:24:22.480Z,68.26
2022-12-29T11:26:57.606Z,68.75
2022-12-29T11:29:29.004Z,68.92
2022-12-29T11:31:59.753Z,68.63
2022-12-29T11:34:34.362Z,68.75
2022-12-29T11:37:10.705Z,69.18
2022-12-29T11:39:46.074Z,68.76
2022-12-29T11:42:18.017Z,68.98
2022-12-29T11:44:49.001Z,68.88
2022-12-29T11:47:29.508Z,68.91
2022-12-29T11:50:02.259Z,69.15
2022-12-29T11:52:35.872Z,69.00
2022-12-29T11:55:08.064Z,68.92
2022-12-29T11:57:37.179Z,68.87
2022-12-29T12:00:19.684Z,68.47
2022-12-29T12:02:51.887Z,68.38
2022-12-29T12:05:30.955Z,69.43
2022-12-29T12:08:05.400Z,68.35
2022-12-29T12:10:42.889Z,68.21
2022-12-29T12:13:24.969Z,68.49
2022-12-29T12:15:59.964Z,67.94
2022-12-29T12:18:38.034Z,68.44
2022-12-29T12:21:15.536Z,67.78
2022-12-29T12:24:05.044Z,68.08
2022-12-29T12:26:38.349Z,68.08
2022-12-29T12:29:13.135Z,68.48
2022-12-29T12:31:50.607Z,68.22
2022-12-29T12:34:25.664Z,68.36
2022-12-29T12:37:16.257Z,67.99
2022-12-29T12:39:58.656Z,67.48
2022-12-29T12:42:44.357Z,67.49
2022-12-29T12:45:39.856Z,67.51
2022-12-29T12:48:28.569Z,67.51
2022-12-29T12:51:09.290Z,67.73
2022-12-29T12:53:48.453Z,67.95
2022-12-29T12:56:38.183Z,67.82
2022-12-29T12:59:17.856Z,67.48
2022-12-29T13:01:54.324Z,67.90
2022-12-29T13:04:44.324Z,68.55
2022-12-29T13:07:25.046Z,68.37
2022-12-29T13:10:10.071Z,68.33
2022-12-29T13:12:48.381Z,68.03
2022-12-29T13:15:29.572Z,68.42
2022-12-29T13:18:07.532Z,68.18
2022-12-29T13:20:45.348Z,68.09
2022-12-29T13:23:25.056Z,68.56
2022-12-29T13:26:02.932Z,68.43
2022-12-29T13:28:38.208Z,68.21
2022-12-29T13:31:16.476Z,68.38
2022-12-29T13:33:54.462Z,68.62
2022-12-29T13:36:27.924Z,68.31
2022-12-29T13:39:06.505Z,68.01
2022-12-29T13:41:40.826Z,68.34
2022-12-29T13:44:16.723Z,68.10
2022-12-29T13:46:47.452Z,68.03
2022-12-29T13:49:20.027Z,68.18
2022-12-29T13:51:51.543Z,68.17
2022-12-29T13:54:34.641Z,68.07
2022-12-29T13:57:11.205Z,68.28
2022-12-29T13:59:49.824Z,68.74
2022-12-29T14:02:33.523Z,68.40
2022-12-29T14:05:05.691Z,68.08
2022-12-29T14:07:40.524Z,68.19
2022-12-29T14:10:29.432Z,67.71
2022-12-29T14:13:05.658Z,67.70
2022-12-29T14:15:41.519Z,68.13
2022-12-29T14:18:17.669Z,67.65
2022-12-29T14:20:54.023Z,68.58
2022-12-29T14:23:45.067Z,67.93
2022-12-29T14:26:33.601Z,67.35
2022-12-29T14:29:17.998Z,67.88
2022-12-29T14:31:47.371Z,68.26
2022-12-29T14:34:40.616Z,68.04
2022-12-29T14:37:25.527Z,67.99
2022-12-29T14:40:14.079Z,67.96
2022-12-29T14:42:43.895Z,68.14
2022-12-29T14:45:29.330Z,68.15
2022-12-29T14:47:59.131Z,68.66
2022-12-29T14:50:39.778Z,68.30
2022-12-29T14:53:44.380Z,68.41
2022-12-29T14:56:15.134Z,68.60
2022-12-29T14:58:50.185Z,68.71
2022-12-29T15:01:34.521Z,69.05
2022-12-29T15:04:15.387Z,68.87
2022-12-29T15:06:46.400Z,68.79
2022-12-29T15:09:25.827Z,68.82
2022-12-29T15:11:57.488Z,69.11
2022-12-29T15:14:33.940Z,68.99
2022-12-29T15:17:12.259Z,68.79
2022-12-29T15:19:41.169Z,69.21
2022-12-29T15:22:11.988Z,69.12
2022-12-29T15:24:44.036Z,68.96
2022-12-29T15:27:16.238Z,69.01
2022-12-29T15:29:47.190Z,69.29
2022-12-29T15:32:22.343Z,69.14
2022-12-29T15:34:53.405Z,69.55
2022-12-29T15:37:24.957Z,69.46
2022-12-29T15:39:55.694Z,69.46
2022-12-29T15:42:57.553Z,69.52
2022-12-29T15:45:31.552Z,69.60
2022-12-29T15:48:01.606Z,69.94
2022-12-29T15:50:33.497Z,69.94
2022-12-29T15:53:10.157Z,70.03
2022-12-29T15:55:42.319Z,70.13
2022-12-29T15:58:22.469Z,70.08
2022-12-29T16:00:53.966Z,70.14
2022-12-29T16:03:25.507Z,70.33
2022-12-29T16:05:57.381Z,70.16
2022-12-29T16:08:33.262Z,70.29
2022-12-29T16:11:07.366Z,70.45
2022-12-29T16:13:40.252Z,70.44
2022-12-29T16:16:15.182Z,70.62
2022-12-29T16:18:48.359Z,70.72
2022-12-29T16:21:24.096Z,70.91
2022-12-29T16:23:55.917Z,71.16
2022-12-29T16:26:25.367Z,71.35
2022-12-29T16:28:57.891Z,71.50
2022-12-29T16:31:35.378Z,71.59
2022-12-29T16:34:22.141Z,71.64
2022-12-29T16:36:58.895Z,71.85
2022-12-29T16:39:34.631Z,71.80
2022-12-29T16:42:37.037Z,72.05
2022-12-29T16:45:49.349Z,72.02
2022-12-29T16:48:22.443Z,72.02
2022-12-29T16:50:51.982Z,72.01
2022-12-29T16:53:26.752Z,72.08
2022-12-29T16:55:58.443Z,72.02
2022-12-29T16:58:32.027Z,71.96
2022-12-29T17:01:04.248Z,71.51
2022-12-29T17:03:39.383Z,71.58
2022-12-29T17:06:15.377Z,71.67
2022-12-29T17:08:45.335Z,71.48
2022-12-29T17:11:45.311Z,71.36
2022-12-29T17:14:22.426Z,71.40
2022-12-29T17:16:52.419Z,71.28
2022-12-29T17:19:25.977Z,71.13
2022-12-29T17:21:54.926Z,71.15
2022-12-29T17:24:23.842Z,71.13
2022-12-29T17:26:55.653Z,71.23
2022-12-29T17:29:31.814Z,70.97
2022-12-29T17:32:02.852Z,70.91
2022-12-29T17:34:32.242Z,70.94
2022-12-29T17:37:01.211Z,71.09
2022-12-29T17:39:30.191Z,71.04
2022-12-29T17:41:59.243Z,70.85
2022-12-29T17:44:28.749Z,71.12
2022-12-29T17:46:57.845Z,71.20
2022-12-29T17:49:28.174Z,71.09
2022-12-29T17:51:58.293Z,71.28
2022-12-29T17:54:27.341Z,71.11
2022-12-29T17:56:56.378Z,71.19
2022-12-29T17:59:25.387Z,71.17
2022-12-29T18:01:54.501Z,71.07
2022-12-29T18:04:23.464Z,71.13
2022-12-29T18:06:52.308Z,71.36
2022-12-29T18:09:22.139Z,71.42
2022-12-29T18:11:51.043Z,71.47
2022-12-29T18:14:19.978Z,71.57
2022-12-29T18:16:48.970Z,71.78
2022-12-29T18:19:17.810Z,71.59
2022-12-29T18:21:46.808Z,71.88
2022-12-29T18:24:15.925Z,71.80
2022-12-29T18:26:44.839Z,71.61
2022-12-29T18:29:13.794Z,71.75
2022-12-29T18:31:43.518Z,71.90
2022-12-29T18:34:15.373Z,72.05
2022-12-29T18:36:44.791Z,71.84
2022-12-29T18:39:14.353Z,71.85
2022-12-29T18:41:43.955Z,71.96
2022-12-29T18:44:13.596Z,72.04
2022-12-29T18:46:42.829Z,72.09
2022-12-29T18:49:11.735Z,72.26
2022-12-29T18:51:43.284Z,72.27
2022-12-29T18:54:29.661Z,72.15
2022-12-29T18:56:59.796Z,72.18
2022-12-29T18:59:28.881Z,72.37
2022-12-29T19:01:58.186Z,72.43
2022-12-29T19:04:27.828Z,72.36
2022-12-29T19:06:56.827Z,72.50
2022-12-29T19:09:26.928Z,72.61
2022-12-29T19:11:55.782Z,72.56
2022-12-29T19:14:25.055Z,72.58
2022-12-29T19:16:54.368Z,72.63
2022-12-29T19:19:23.282Z,72.70
2022-12-29T19:21:55.901Z,72.54
2022-12-29T19:24:24.804Z,72.54
2022-12-29T19:26:53.901Z,72.40
2022-12-29T19:29:22.845Z,72.45
2022-12-29T19:31:51.766Z,72.52
2022-12-29T19:34:20.723Z,72.46
2022-12-29T19:36:49.605Z,72.61
2022-12-29T19:39:18.664Z,72.58
2022-12-29T19:41:48.697Z,72.38
2022-12-29T19:44:18.860Z,72.52
2022-12-29T19:46:48.822Z,72.41
2022-12-29T19:49:17.873Z,72.32
2022-12-29T19:51:47.004Z,72.41
2022-12-29T19:54:15.858Z,72.58
2022-12-29T19:56:44.867Z,72.42
2022-12-29T19:59:13.813Z,72.37
2022-12-29T20:01:43.344Z,72.25
2022-12-29T20:04:12.383Z,72.12
2022-12-29T20:06:41.357Z,71.97
2022-12-29T20:09:10.354Z,72.05
2022-12-29T20:11:39.389Z,71.60
2022-12-29T20:14:08.607Z,71.62
2022-12-29T20:16:48.951Z,71.53
2022-12-29T20:19:26.574Z,71.52
2022-12-29T20:21:55.691Z,71.41
2022-12-29T20:24:24.589Z,71.43
2022-12-29T20:26:54.077Z,71.46
2022-12-29T20:29:23.541Z,71.29
2022-12-29T20:31:53.366Z,71.19
2022-12-29T20:34:22.304Z,71.25
2022-12-29T20:36:51.360Z,71.31
2022-12-29T20:39:21.013Z,71.22
2022-12-29T20:41:50.800Z,71.17
2022-12-29T20:44:21.374Z,71.24
2022-12-29T20:46:50.436Z,71.34
2022-12-29T20:49:19.638Z,71.28
2022-12-29T20:52:05.715Z,71.48
2022-12-29T20:54:39.386Z,71.49
2022-12-29T20:57:09.812Z,71.63
2022-12-29T20:59:38.859Z,71.72
2022-12-29T21:02:17.184Z,71.64
2022-12-29T21:05:22.056Z,71.77
2022-12-29T21:07:35.699Z,71.72
2022-12-29T21:10:05.620Z,71.76
2022-12-29T21:12:34.689Z,71.81
2022-12-29T21:15:04.573Z,71.93
2022-12-29T21:17:34.041Z,71.90
2022-12-29T21:20:03.628Z,71.89
2022-12-29T21:22:32.882Z,71.85
2022-12-29T21:25:01.804Z,71.83
2022-12-29T21:27:32.894Z,71.91
2022-12-29T21:30:01.980Z,72.09
2022-12-29T21:32:30.886Z,72.03
2022-12-29T21:34:59.819Z,71.81
2022-12-29T21:37:28.921Z,71.73
2022-12-29T21:39:58.324Z,71.57
2022-12-29T21:42:27.484Z,71.79
2022-12-29T21:45:20.090Z,71.55
2022-12-29T21:48:08.186Z,71.55
2022-12-29T21:50:59.991Z,71.42
2022-12-29T21:53:38.817Z,71.36
2022-12-29T21:56:10.581Z,71.41
2022-12-29T21:58:59.977Z,71.21
2022-12-29T22:01:48.338Z,71.10
2022-12-29T22:04:37.756Z,71.25
2022-12-29T22:07:26.006Z,71.06
2022-12-29T22:10:12.858Z,71.14
2022-12-29T22:13:00.683Z,71.14
2022-12-29T22:15:33.095Z,70.97
2022-12-29T22:18:03.156Z,70.89
2022-12-29T22:20:34.865Z,70.77
2022-12-29T22:23:04.105Z,71.00
2022-12-29T22:25:33.636Z,71.03
2022-12-29T22:28:02.463Z,71.10
2022-12-29T22:30:32.155Z,71.14
2022-12-29T22:33:01.557Z,71.10
2022-12-29T22:35:30.455Z,70.95
2022-12-29T22:37:59.638Z,71.15
2022-12-29T22:40:28.510Z,71.00
2022-12-29T22:42:57.412Z,70.81
2022-12-29T22:45:26.645Z,71.13
2022-12-29T22:47:55.573Z,70.85
2022-12-29T22:50:24.633Z,71.06
2022-12-29T22:52:53.594Z,70.73
2022-12-29T22:55:22.587Z,70.89
2022-12-29T22:57:51.449Z,71.06
2022-12-29T23:00:20.499Z,70.56
2022-12-29T23:02:49.469Z,70.80
2022-12-29T23:05:18.839Z,70.78
2022-12-29T23:07:47.722Z,70.73
2022-12-29T23:10:16.852Z,70.68
2022-12-29T23:12:45.727Z,70.94
2022-12-29T23:15:14.625Z,70.75
2022-12-29T23:17:43.503Z,70.69
2022-12-29T23:20:13.361Z,70.79
2022-12-29T23:22:42.248Z,70.93
2022-12-29T23:25:11.328Z,70.71
2022-12-29T23:27:40.320Z,70.82
2022-12-29T23:30:10.822Z,70.67
2022-12-29T23:32:39.739Z,70.74
2022-12-29T23:35:10.357Z,70.83
2022-12-29T23:37:39.227Z,70.77
2022-12-29T23:40:10.220Z,70.95
2022-12-29T23:42:39.097Z,70.98
2022-12-29T23:45:10.818Z,71.07
2022-12-29T23:47:39.892Z,71.07
2022-12-29T23:50:10.075Z,71.07
2022-12-29T23:52:39.031Z,71.09
2022-12-29T23:55:10.432Z,71.06
2022-12-29T23:57:39.372Z,71.29
